Times Square, Washington
Current Conditions -  °F | °C
As of 10:53 PM on Thursday 30 Oct 2014 (Local Time) from KBFI Reporting Station
Overcast Overcast  
Wind Chill: 58°   Ceiling: 4200
Heat Index: 58°   Visibility: 10mi
Dew Point: 52°   Wind: 7mph
Humidity: 81%   Direction: 140°SE
Pressure: 29.77"   Gusts: NA
Location:  47.6115°N, 122.334°W
Report Text: KBFI 310553Z 14006KT 10SM OVC042 14/11 A2977 RMK AO2 RAB43E52 SLP079 P0000 60017 T01440111 10161 20144 58000
Loading
Personal Weather Stations






























Interactive Weather Map
Tropical Storm Tracking
New forecast layout! Learn more

10-Day Weather Forecast

Advertisements
Track Severe Weather on mobile